sensor_id;sensor_type;location;lat;lon;timestamp;P1;durP1;ratioP1;P2;durP2;ratioP2
6131;SDS011;3097;42.692;23.278;2023-03-23T00:02:14;59.67;;;28.70;;
6131;SDS011;3097;42.692;23.278;2023-03-23T00:04:39;59.73;;;28.17;;
6131;SDS011;3097;42.692;23.278;2023-03-23T00:07:07;61.77;;;28.93;;
6131;SDS011;3097;42.692;23.278;2023-03-23T00:09:33;59.73;;;27.77;;
6131;SDS011;3097;42.692;23.278;2023-03-23T00:11:59;62.70;;;27.13;;
6131;SDS011;3097;42.692;23.278;2023-03-23T00:14:31;56.63;;;26.67;;
6131;SDS011;3097;42.692;23.278;2023-03-23T00:17:06;59.77;;;28.17;;
6131;SDS011;3097;42.692;23.278;2023-03-23T00:19:39;53.33;;;26.43;;
6131;SDS011;3097;42.692;23.278;2023-03-23T00:22:14;59.77;;;28.83;;
6131;SDS011;3097;42.692;23.278;2023-03-23T00:24:42;61.40;;;27.40;;
6131;SDS011;3097;42.692;23.278;2023-03-23T00:27:09;64.37;;;30.33;;
6131;SDS011;3097;42.692;23.278;2023-03-23T00:29:37;62.47;;;29.70;;
6131;SDS011;3097;42.692;23.278;2023-03-23T00:32:03;64.27;;;29.27;;
6131;SDS011;3097;42.692;23.278;2023-03-23T00:34:28;61.97;;;28.87;;
6131;SDS011;3097;42.692;23.278;2023-03-23T00:36:57;57.60;;;27.60;;
6131;SDS011;3097;42.692;23.278;2023-03-23T00:39:24;52.07;;;26.97;;
6131;SDS011;3097;42.692;23.278;2023-03-23T00:41:51;57.93;;;28.13;;
6131;SDS011;3097;42.692;23.278;2023-03-23T00:44:18;61.83;;;28.47;;
6131;SDS011;3097;42.692;23.278;2023-03-23T00:46:45;57.63;;;28.33;;
6131;SDS011;3097;42.692;23.278;2023-03-23T00:49:14;55.23;;;27.07;;
6131;SDS011;3097;42.692;23.278;2023-03-23T00:51:41;58.03;;;27.60;;
6131;SDS011;3097;42.692;23.278;2023-03-23T00:54:08;56.03;;;26.50;;
6131;SDS011;3097;42.692;23.278;2023-03-23T00:56:34;59.20;;;27.20;;
6131;SDS011;3097;42.692;23.278;2023-03-23T00:58:59;54.87;;;25.53;;
6131;SDS011;3097;42.692;23.278;2023-03-23T01:01:25;57.97;;;26.40;;
6131;SDS011;3097;42.692;23.278;2023-03-23T01:03:51;51.23;;;25.50;;
6131;SDS011;3097;42.692;23.278;2023-03-23T01:06:18;55.80;;;25.50;;
6131;SDS011;3097;42.692;23.278;2023-03-23T01:08:43;50.97;;;26.40;;
6131;SDS011;3097;42.692;23.278;2023-03-23T01:11:13;59.20;;;24.13;;
6131;SDS011;3097;42.692;23.278;2023-03-23T01:13:41;49.87;;;25.80;;
6131;SDS011;3097;42.692;23.278;2023-03-23T01:16:08;45.87;;;25.00;;
6131;SDS011;3097;42.692;23.278;2023-03-23T01:18:34;53.53;;;26.80;;
6131;SDS011;3097;42.692;23.278;2023-03-23T01:21:04;56.50;;;25.87;;
6131;SDS011;3097;42.692;23.278;2023-03-23T01:23:31;48.97;;;23.43;;
6131;SDS011;3097;42.692;23.278;2023-03-23T01:26:02;56.90;;;25.50;;
6131;SDS011;3097;42.692;23.278;2023-03-23T01:28:48;44.97;;;22.47;;
6131;SDS011;3097;42.692;23.278;2023-03-23T01:31:18;47.23;;;23.00;;
6131;SDS011;3097;42.692;23.278;2023-03-23T01:33:46;39.30;;;20.37;;
6131;SDS011;3097;42.692;23.278;2023-03-23T01:36:16;26.40;;;14.27;;
6131;SDS011;3097;42.692;23.278;2023-03-23T01:38:44;23.80;;;12.80;;
6131;SDS011;3097;42.692;23.278;2023-03-23T01:41:11;23.83;;;14.07;;
6131;SDS011;3097;42.692;23.278;2023-03-23T01:43:53;25.57;;;13.53;;
6131;SDS011;3097;42.692;23.278;2023-03-23T01:46:25;21.27;;;11.93;;
6131;SDS011;3097;42.692;23.278;2023-03-23T01:48:51;21.93;;;12.53;;
6131;SDS011;3097;42.692;23.278;2023-03-23T01:51:18;20.13;;;12.27;;
6131;SDS011;3097;42.692;23.278;2023-03-23T01:53:46;23.90;;;13.80;;
6131;SDS011;3097;42.692;23.278;2023-03-23T01:56:16;22.73;;;13.73;;
6131;SDS011;3097;42.692;23.278;2023-03-23T01:58:50;25.50;;;14.67;;
6131;SDS011;3097;42.692;23.278;2023-03-23T02:01:20;25.03;;;14.27;;
6131;SDS011;3097;42.692;23.278;2023-03-23T02:03:50;27.17;;;14.30;;
6131;SDS011;3097;42.692;23.278;2023-03-23T02:06:19;23.97;;;14.07;;
6131;SDS011;3097;42.692;23.278;2023-03-23T02:08:45;22.57;;;13.40;;
6131;SDS011;3097;42.692;23.278;2023-03-23T02:11:15;21.27;;;13.17;;
6131;SDS011;3097;42.692;23.278;2023-03-23T02:13:42;26.47;;;15.43;;
6131;SDS011;3097;42.692;23.278;2023-03-23T02:21:31;28.13;;;15.90;;
6131;SDS011;3097;42.692;23.278;2023-03-23T02:26:59;26.30;;;15.37;;
6131;SDS011;3097;42.692;23.278;2023-03-23T02:35:29;33.00;;;17.47;;
6131;SDS011;3097;42.692;23.278;2023-03-23T02:38:01;26.93;;;15.70;;
6131;SDS011;3097;42.692;23.278;2023-03-23T02:40:38;30.30;;;15.13;;
6131;SDS011;3097;42.692;23.278;2023-03-23T02:43:09;26.27;;;15.30;;
6131;SDS011;3097;42.692;23.278;2023-03-23T02:45:38;26.03;;;14.63;;
6131;SDS011;3097;42.692;23.278;2023-03-23T02:48:06;28.33;;;15.83;;
6131;SDS011;3097;42.692;23.278;2023-03-23T02:50:34;27.80;;;15.93;;
6131;SDS011;3097;42.692;23.278;2023-03-23T02:53:02;28.57;;;15.87;;
6131;SDS011;3097;42.692;23.278;2023-03-23T02:55:32;28.80;;;15.70;;
6131;SDS011;3097;42.692;23.278;2023-03-23T02:58:05;30.70;;;17.53;;
6131;SDS011;3097;42.692;23.278;2023-03-23T03:00:31;29.73;;;16.20;;
6131;SDS011;3097;42.692;23.278;2023-03-23T03:02:56;36.40;;;18.50;;
6131;SDS011;3097;42.692;23.278;2023-03-23T03:05:32;36.93;;;19.27;;
6131;SDS011;3097;42.692;23.278;2023-03-23T03:08:14;40.33;;;18.63;;
6131;SDS011;3097;42.692;23.278;2023-03-23T03:10:49;39.97;;;19.67;;
6131;SDS011;3097;42.692;23.278;2023-03-23T03:13:52;39.67;;;19.97;;
6131;SDS011;3097;42.692;23.278;2023-03-23T03:21:45;37.70;;;20.90;;
6131;SDS011;3097;42.692;23.278;2023-03-23T03:24:14;42.07;;;21.10;;
6131;SDS011;3097;42.692;23.278;2023-03-23T03:26:44;45.87;;;22.93;;
6131;SDS011;3097;42.692;23.278;2023-03-23T03:29:13;45.27;;;24.00;;
6131;SDS011;3097;42.692;23.278;2023-03-23T03:31:42;46.43;;;24.63;;
6131;SDS011;3097;42.692;23.278;2023-03-23T03:34:13;56.57;;;29.63;;
6131;SDS011;3097;42.692;23.278;2023-03-23T03:36:43;72.17;;;34.17;;
6131;SDS011;3097;42.692;23.278;2023-03-23T03:39:10;76.83;;;37.20;;
6131;SDS011;3097;42.692;23.278;2023-03-23T03:41:37;75.83;;;36.93;;
6131;SDS011;3097;42.692;23.278;2023-03-23T03:44:04;76.63;;;36.00;;
6131;SDS011;3097;42.692;23.278;2023-03-23T03:46:31;68.37;;;34.53;;
6131;SDS011;3097;42.692;23.278;2023-03-23T03:49:00;87.17;;;39.10;;
6131;SDS011;3097;42.692;23.278;2023-03-23T03:51:27;85.80;;;40.40;;
6131;SDS011;3097;42.692;23.278;2023-03-23T03:53:55;87.00;;;41.37;;
6131;SDS011;3097;42.692;23.278;2023-03-23T03:56:21;96.23;;;42.67;;
6131;SDS011;3097;42.692;23.278;2023-03-23T03:58:47;94.07;;;44.33;;
6131;SDS011;3097;42.692;23.278;2023-03-23T04:01:13;94.40;;;44.33;;
6131;SDS011;3097;42.692;23.278;2023-03-23T04:03:41;84.43;;;40.37;;
6131;SDS011;3097;42.692;23.278;2023-03-23T04:06:07;66.80;;;34.10;;
6131;SDS011;3097;42.692;23.278;2023-03-23T04:08:33;75.20;;;36.40;;
6131;SDS011;3097;42.692;23.278;2023-03-23T04:11:00;79.30;;;37.93;;
6131;SDS011;3097;42.692;23.278;2023-03-23T04:13:26;78.10;;;37.00;;
6131;SDS011;3097;42.692;23.278;2023-03-23T04:15:52;72.73;;;34.27;;
6131;SDS011;3097;42.692;23.278;2023-03-23T04:18:17;79.50;;;36.30;;
6131;SDS011;3097;42.692;23.278;2023-03-23T04:20:46;70.60;;;35.13;;
6131;SDS011;3097;42.692;23.278;2023-03-23T04:23:16;73.03;;;35.90;;
6131;SDS011;3097;42.692;23.278;2023-03-23T04:25:48;85.10;;;38.10;;
6131;SDS011;3097;42.692;23.278;2023-03-23T04:28:18;80.67;;;37.77;;
6131;SDS011;3097;42.692;23.278;2023-03-23T04:30:48;73.63;;;36.00;;
6131;SDS011;3097;42.692;23.278;2023-03-23T04:33:18;90.60;;;40.90;;
6131;SDS011;3097;42.692;23.278;2023-03-23T04:35:45;85.07;;;40.40;;
6131;SDS011;3097;42.692;23.278;2023-03-23T04:38:13;87.23;;;40.47;;
6131;SDS011;3097;42.692;23.278;2023-03-23T04:40:41;86.50;;;41.93;;
6131;SDS011;3097;42.692;23.278;2023-03-23T04:43:08;98.73;;;44.80;;
6131;SDS011;3097;42.692;23.278;2023-03-23T04:45:34;101.37;;;46.03;;
6131;SDS011;3097;42.692;23.278;2023-03-23T04:48:03;96.03;;;45.33;;
6131;SDS011;3097;42.692;23.278;2023-03-23T04:50:30;99.33;;;46.00;;
6131;SDS011;3097;42.692;23.278;2023-03-23T04:53:00;98.50;;;45.87;;
6131;SDS011;3097;42.692;23.278;2023-03-23T04:55:31;102.40;;;46.43;;
6131;SDS011;3097;42.692;23.278;2023-03-23T04:58:01;107.03;;;47.40;;
6131;SDS011;3097;42.692;23.278;2023-03-23T05:00:30;99.13;;;45.63;;
6131;SDS011;3097;42.692;23.278;2023-03-23T05:02:57;114.23;;;49.23;;
6131;SDS011;3097;42.692;23.278;2023-03-23T05:05:23;128.67;;;52.37;;
6131;SDS011;3097;42.692;23.278;2023-03-23T05:07:50;130.03;;;52.63;;
6131;SDS011;3097;42.692;23.278;2023-03-23T05:10:16;139.50;;;54.83;;
6131;SDS011;3097;42.692;23.278;2023-03-23T05:12:42;139.70;;;51.63;;
6131;SDS011;3097;42.692;23.278;2023-03-23T05:15:09;120.10;;;50.87;;
6131;SDS011;3097;42.692;23.278;2023-03-23T05:17:36;107.57;;;44.73;;
6131;SDS011;3097;42.692;23.278;2023-03-23T05:20:03;106.90;;;45.87;;
6131;SDS011;3097;42.692;23.278;2023-03-23T05:22:32;117.63;;;48.40;;
6131;SDS011;3097;42.692;23.278;2023-03-23T05:24:58;125.03;;;51.47;;
6131;SDS011;3097;42.692;23.278;2023-03-23T05:27:24;117.37;;;49.03;;
6131;SDS011;3097;42.692;23.278;2023-03-23T05:29:53;101.03;;;46.23;;
6131;SDS011;3097;42.692;23.278;2023-03-23T05:32:18;114.57;;;50.53;;
6131;SDS011;3097;42.692;23.278;2023-03-23T05:34:44;95.30;;;47.30;;
6131;SDS011;3097;42.692;23.278;2023-03-23T05:37:10;89.80;;;40.83;;
6131;SDS011;3097;42.692;23.278;2023-03-23T05:39:37;92.63;;;44.77;;
6131;SDS011;3097;42.692;23.278;2023-03-23T05:42:03;86.67;;;42.23;;
6131;SDS011;3097;42.692;23.278;2023-03-23T05:44:29;78.50;;;40.83;;
6131;SDS011;3097;42.692;23.278;2023-03-23T05:46:54;81.73;;;40.77;;
6131;SDS011;3097;42.692;23.278;2023-03-23T05:49:20;93.27;;;44.50;;
6131;SDS011;3097;42.692;23.278;2023-03-23T05:51:49;90.33;;;45.30;;
6131;SDS011;3097;42.692;23.278;2023-03-23T05:54:15;109.67;;;48.63;;
6131;SDS011;3097;42.692;23.278;2023-03-23T05:56:41;107.50;;;50.80;;
6131;SDS011;3097;42.692;23.278;2023-03-23T05:59:07;109.20;;;50.20;;
6131;SDS011;3097;42.692;23.278;2023-03-23T06:01:33;101.50;;;45.53;;
6131;SDS011;3097;42.692;23.278;2023-03-23T06:03:58;82.57;;;38.03;;
6131;SDS011;3097;42.692;23.278;2023-03-23T06:06:25;89.47;;;43.03;;
6131;SDS011;3097;42.692;23.278;2023-03-23T06:08:51;78.10;;;38.73;;
6131;SDS011;3097;42.692;23.278;2023-03-23T06:11:17;74.20;;;36.00;;
6131;SDS011;3097;42.692;23.278;2023-03-23T06:13:43;74.23;;;37.77;;
6131;SDS011;3097;42.692;23.278;2023-03-23T06:16:09;77.67;;;39.47;;
6131;SDS011;3097;42.692;23.278;2023-03-23T06:18:35;85.93;;;39.67;;
6131;SDS011;3097;42.692;23.278;2023-03-23T06:21:04;90.57;;;44.17;;
6131;SDS011;3097;42.692;23.278;2023-03-23T06:23:31;83.87;;;44.70;;
6131;SDS011;3097;42.692;23.278;2023-03-23T06:25:57;62.43;;;37.00;;
6131;SDS011;3097;42.692;23.278;2023-03-23T06:28:24;54.30;;;32.40;;
6131;SDS011;3097;42.692;23.278;2023-03-23T06:30:50;49.67;;;28.73;;
6131;SDS011;3097;42.692;23.278;2023-03-23T06:33:16;45.90;;;26.67;;
6131;SDS011;3097;42.692;23.278;2023-03-23T06:35:42;49.13;;;28.03;;
6131;SDS011;3097;42.692;23.278;2023-03-23T06:38:08;44.93;;;27.50;;
6131;SDS011;3097;42.692;23.278;2023-03-23T06:40:34;54.87;;;33.40;;
6131;SDS011;3097;42.692;23.278;2023-03-23T06:43:01;53.77;;;31.10;;
6131;SDS011;3097;42.692;23.278;2023-03-23T06:45:28;48.23;;;28.50;;
6131;SDS011;3097;42.692;23.278;2023-03-23T06:47:54;51.70;;;31.47;;
6131;SDS011;3097;42.692;23.278;2023-03-23T06:50:19;55.53;;;31.87;;
6131;SDS011;3097;42.692;23.278;2023-03-23T06:52:46;49.17;;;31.60;;
6131;SDS011;3097;42.692;23.278;2023-03-23T06:55:12;47.23;;;31.40;;
6131;SDS011;3097;42.692;23.278;2023-03-23T06:57:39;47.07;;;30.80;;
6131;SDS011;3097;42.692;23.278;2023-03-23T07:00:05;53.13;;;32.60;;
6131;SDS011;3097;42.692;23.278;2023-03-23T07:02:37;49.30;;;32.27;;
6131;SDS011;3097;42.692;23.278;2023-03-23T07:05:02;45.23;;;29.80;;
6131;SDS011;3097;42.692;23.278;2023-03-23T07:07:28;40.97;;;29.10;;
6131;SDS011;3097;42.692;23.278;2023-03-23T07:09:54;34.63;;;25.47;;
6131;SDS011;3097;42.692;23.278;2023-03-23T07:12:20;43.90;;;29.17;;
6131;SDS011;3097;42.692;23.278;2023-03-23T07:14:46;33.60;;;24.50;;
6131;SDS011;3097;42.692;23.278;2023-03-23T07:17:12;35.23;;;24.73;;
6131;SDS011;3097;42.692;23.278;2023-03-23T07:19:38;34.83;;;24.93;;
6131;SDS011;3097;42.692;23.278;2023-03-23T07:22:04;35.30;;;24.83;;
6131;SDS011;3097;42.692;23.278;2023-03-23T07:24:31;32.00;;;24.98;;
6131;SDS011;3097;42.692;23.278;2023-03-23T07:26:57;29.95;;;23.70;;
6131;SDS011;3097;42.692;23.278;2023-03-23T07:29:23;31.90;;;22.73;;
6131;SDS011;3097;42.692;23.278;2023-03-23T07:31:49;28.67;;;22.48;;
6131;SDS011;3097;42.692;23.278;2023-03-23T07:34:14;27.55;;;22.67;;
6131;SDS011;3097;42.692;23.278;2023-03-23T07:36:40;28.25;;;22.52;;
6131;SDS011;3097;42.692;23.278;2023-03-23T07:39:05;31.47;;;23.73;;
6131;SDS011;3097;42.692;23.278;2023-03-23T07:41:32;29.83;;;22.43;;
6131;SDS011;3097;42.692;23.278;2023-03-23T07:43:58;28.43;;;21.40;;
6131;SDS011;3097;42.692;23.278;2023-03-23T07:46:23;27.10;;;21.33;;
6131;SDS011;3097;42.692;23.278;2023-03-23T07:48:49;28.77;;;21.80;;
6131;SDS011;3097;42.692;23.278;2023-03-23T07:51:15;28.60;;;21.13;;
6131;SDS011;3097;42.692;23.278;2023-03-23T07:53:44;30.57;;;21.87;;
6131;SDS011;3097;42.692;23.278;2023-03-23T07:56:10;35.17;;;22.87;;
6131;SDS011;3097;42.692;23.278;2023-03-23T07:58:37;36.07;;;21.67;;
6131;SDS011;3097;42.692;23.278;2023-03-23T08:01:03;32.57;;;22.07;;
6131;SDS011;3097;42.692;23.278;2023-03-23T08:03:29;30.40;;;20.63;;
6131;SDS011;3097;42.692;23.278;2023-03-23T08:05:57;32.60;;;21.33;;
6131;SDS011;3097;42.692;23.278;2023-03-23T08:08:23;29.67;;;20.73;;
6131;SDS011;3097;42.692;23.278;2023-03-23T08:10:49;34.10;;;20.37;;
6131;SDS011;3097;42.692;23.278;2023-03-23T08:13:15;30.33;;;19.70;;
6131;SDS011;3097;42.692;23.278;2023-03-23T08:15:41;31.70;;;20.33;;
6131;SDS011;3097;42.692;23.278;2023-03-23T08:18:06;28.03;;;18.73;;
6131;SDS011;3097;42.692;23.278;2023-03-23T08:20:33;37.17;;;23.70;;
6131;SDS011;3097;42.692;23.278;2023-03-23T08:22:58;29.23;;;19.73;;
6131;SDS011;3097;42.692;23.278;2023-03-23T08:25:24;30.23;;;20.63;;
6131;SDS011;3097;42.692;23.278;2023-03-23T08:27:51;28.93;;;18.73;;
6131;SDS011;3097;42.692;23.278;2023-03-23T08:30:19;40.20;;;22.30;;
6131;SDS011;3097;42.692;23.278;2023-03-23T08:32:47;29.33;;;18.60;;
6131;SDS011;3097;42.692;23.278;2023-03-23T08:35:13;23.13;;;16.47;;
6131;SDS011;3097;42.692;23.278;2023-03-23T08:37:40;25.90;;;17.63;;
6131;SDS011;3097;42.692;23.278;2023-03-23T08:40:07;30.53;;;16.67;;
6131;SDS011;3097;42.692;23.278;2023-03-23T08:42:35;23.73;;;14.90;;
6131;SDS011;3097;42.692;23.278;2023-03-23T08:45:03;22.03;;;14.50;;
6131;SDS011;3097;42.692;23.278;2023-03-23T08:47:33;17.87;;;11.20;;
6131;SDS011;3097;42.692;23.278;2023-03-23T08:50:00;12.63;;;9.40;;
6131;SDS011;3097;42.692;23.278;2023-03-23T08:52:27;15.00;;;9.80;;
6131;SDS011;3097;42.692;23.278;2023-03-23T08:54:53;13.10;;;9.87;;
6131;SDS011;3097;42.692;23.278;2023-03-23T08:57:19;13.23;;;10.53;;
6131;SDS011;3097;42.692;23.278;2023-03-23T08:59:45;13.40;;;10.93;;
6131;SDS011;3097;42.692;23.278;2023-03-23T09:02:11;12.07;;;10.27;;
6131;SDS011;3097;42.692;23.278;2023-03-23T09:04:37;10.50;;;9.13;;
6131;SDS011;3097;42.692;23.278;2023-03-23T12:32:56;6.87;;;6.13;;
6131;SDS011;3097;42.692;23.278;2023-03-23T12:35:46;7.73;;;6.93;;
6131;SDS011;3097;42.692;23.278;2023-03-23T12:41:20;7.60;;;6.00;;
6131;SDS011;3097;42.692;23.278;2023-03-23T12:49:12;8.07;;;7.10;;
6131;SDS011;3097;42.692;23.278;2023-03-23T12:59:43;9.30;;;7.33;;
6131;SDS011;3097;42.692;23.278;2023-03-23T13:02:21;8.23;;;6.67;;
6131;SDS011;3097;42.692;23.278;2023-03-23T13:05:06;7.80;;;5.77;;
6131;SDS011;3097;42.692;23.278;2023-03-23T13:07:41;7.97;;;6.23;;
6131;SDS011;3097;42.692;23.278;2023-03-23T13:10:21;6.43;;;5.83;;
6131;SDS011;3097;42.692;23.278;2023-03-23T13:12:50;7.03;;;6.33;;
6131;SDS011;3097;42.692;23.278;2023-03-23T13:18:10;7.43;;;6.70;;
6131;SDS011;3097;42.692;23.278;2023-03-23T13:21:13;7.90;;;6.03;;
6131;SDS011;3097;42.692;23.278;2023-03-23T13:23:45;6.67;;;6.00;;
6131;SDS011;3097;42.692;23.278;2023-03-23T13:26:19;7.03;;;6.43;;
6131;SDS011;3097;42.692;23.278;2023-03-23T13:31:22;8.10;;;6.93;;
6131;SDS011;3097;42.692;23.278;2023-03-23T13:34:03;7.40;;;6.70;;
6131;SDS011;3097;42.692;23.278;2023-03-23T13:39:05;6.17;;;5.67;;
6131;SDS011;3097;42.692;23.278;2023-03-23T13:41:58;7.40;;;6.13;;
6131;SDS011;3097;42.692;23.278;2023-03-23T13:52:45;7.57;;;6.63;;
6131;SDS011;3097;42.692;23.278;2023-03-23T14:00:48;6.73;;;6.03;;
6131;SDS011;3097;42.692;23.278;2023-03-23T14:03:23;6.67;;;6.07;;
6131;SDS011;3097;42.692;23.278;2023-03-23T14:05:51;8.47;;;6.90;;
6131;SDS011;3097;42.692;23.278;2023-03-23T14:10:55;6.80;;;6.00;;
6131;SDS011;3097;42.692;23.278;2023-03-23T14:13:50;6.27;;;5.70;;
6131;SDS011;3097;42.692;23.278;2023-03-23T14:16:49;8.67;;;6.47;;
6131;SDS011;3097;42.692;23.278;2023-03-23T14:19:23;6.07;;;5.50;;
6131;SDS011;3097;42.692;23.278;2023-03-23T14:24:28;6.60;;;6.00;;
6131;SDS011;3097;42.692;23.278;2023-03-23T14:27:18;6.50;;;6.00;;
6131;SDS011;3097;42.692;23.278;2023-03-23T14:29:46;7.10;;;5.97;;
6131;SDS011;3097;42.692;23.278;2023-03-23T14:32:27;6.40;;;5.83;;
6131;SDS011;3097;42.692;23.278;2023-03-23T14:34:54;6.63;;;6.03;;
6131;SDS011;3097;42.692;23.278;2023-03-23T14:37:20;6.93;;;6.13;;
6131;SDS011;3097;42.692;23.278;2023-03-23T14:39:47;7.00;;;6.30;;
6131;SDS011;3097;42.692;23.278;2023-03-23T14:42:16;6.90;;;6.07;;
6131;SDS011;3097;42.692;23.278;2023-03-23T14:44:48;7.17;;;6.37;;
6131;SDS011;3097;42.692;23.278;2023-03-23T14:50:21;6.13;;;5.60;;
6131;SDS011;3097;42.692;23.278;2023-03-23T14:52:59;7.80;;;6.00;;
6131;SDS011;3097;42.692;23.278;2023-03-23T14:55:34;6.60;;;6.00;;
6131;SDS011;3097;42.692;23.278;2023-03-23T14:58:06;5.90;;;5.40;;
6131;SDS011;3097;42.692;23.278;2023-03-23T15:00:34;7.07;;;6.30;;
6131;SDS011;3097;42.692;23.278;2023-03-23T15:03:04;6.97;;;6.27;;
6131;SDS011;3097;42.692;23.278;2023-03-23T15:05:36;8.33;;;6.97;;
6131;SDS011;3097;42.692;23.278;2023-03-23T15:08:06;6.80;;;6.07;;
6131;SDS011;3097;42.692;23.278;2023-03-23T15:10:37;6.20;;;5.60;;
6131;SDS011;3097;42.692;23.278;2023-03-23T15:13:04;9.07;;;7.10;;
6131;SDS011;3097;42.692;23.278;2023-03-23T15:15:33;7.13;;;6.43;;
6131;SDS011;3097;42.692;23.278;2023-03-23T15:18:00;6.40;;;5.90;;
6131;SDS011;3097;42.692;23.278;2023-03-23T15:20:31;6.97;;;5.77;;
6131;SDS011;3097;42.692;23.278;2023-03-23T15:23:22;6.80;;;6.20;;
6131;SDS011;3097;42.692;23.278;2023-03-23T15:25:52;6.63;;;5.93;;
6131;SDS011;3097;42.692;23.278;2023-03-23T15:28:21;7.23;;;6.17;;
6131;SDS011;3097;42.692;23.278;2023-03-23T15:30:53;7.00;;;6.00;;
6131;SDS011;3097;42.692;23.278;2023-03-23T15:33:23;10.63;;;6.23;;
6131;SDS011;3097;42.692;23.278;2023-03-23T15:35:53;7.00;;;6.30;;
6131;SDS011;3097;42.692;23.278;2023-03-23T15:38:25;6.67;;;6.07;;
6131;SDS011;3097;42.692;23.278;2023-03-23T15:40:57;6.87;;;6.23;;
6131;SDS011;3097;42.692;23.278;2023-03-23T15:43:25;7.57;;;6.60;;
6131;SDS011;3097;42.692;23.278;2023-03-23T15:46:03;6.90;;;6.20;;
6131;SDS011;3097;42.692;23.278;2023-03-23T15:51:13;9.20;;;6.77;;
6131;SDS011;3097;42.692;23.278;2023-03-23T15:53:40;7.87;;;7.07;;
6131;SDS011;3097;42.692;23.278;2023-03-23T15:56:07;6.40;;;5.80;;
6131;SDS011;3097;42.692;23.278;2023-03-23T15:58:35;8.50;;;6.43;;
6131;SDS011;3097;42.692;23.278;2023-03-23T16:01:03;8.23;;;6.73;;
6131;SDS011;3097;42.692;23.278;2023-03-23T16:03:35;8.93;;;7.50;;
6131;SDS011;3097;42.692;23.278;2023-03-23T16:06:04;7.37;;;6.63;;
6131;SDS011;3097;42.692;23.278;2023-03-23T16:08:30;9.90;;;7.20;;
6131;SDS011;3097;42.692;23.278;2023-03-23T16:10:56;7.40;;;6.70;;
6131;SDS011;3097;42.692;23.278;2023-03-23T16:13:21;11.77;;;6.83;;
6131;SDS011;3097;42.692;23.278;2023-03-23T16:15:47;7.90;;;6.63;;
6131;SDS011;3097;42.692;23.278;2023-03-23T16:18:17;12.87;;;7.37;;
6131;SDS011;3097;42.692;23.278;2023-03-23T16:20:45;12.07;;;6.70;;
6131;SDS011;3097;42.692;23.278;2023-03-23T16:23:11;10.47;;;6.80;;
6131;SDS011;3097;42.692;23.278;2023-03-23T16:25:37;8.30;;;6.53;;
6131;SDS011;3097;42.692;23.278;2023-03-23T16:28:02;8.17;;;6.50;;
6131;SDS011;3097;42.692;23.278;2023-03-23T16:30:28;9.40;;;7.27;;
6131;SDS011;3097;42.692;23.278;2023-03-23T16:32:57;8.53;;;6.70;;
6131;SDS011;3097;42.692;23.278;2023-03-23T16:35:23;7.83;;;7.00;;
6131;SDS011;3097;42.692;23.278;2023-03-23T16:37:50;10.77;;;6.47;;
6131;SDS011;3097;42.692;23.278;2023-03-23T16:40:18;7.63;;;6.87;;
6131;SDS011;3097;42.692;23.278;2023-03-23T16:42:45;9.43;;;6.60;;
6131;SDS011;3097;42.692;23.278;2023-03-23T16:45:11;9.57;;;7.57;;
6131;SDS011;3097;42.692;23.278;2023-03-23T16:47:38;9.93;;;7.40;;
6131;SDS011;3097;42.692;23.278;2023-03-23T16:50:05;11.27;;;6.83;;
6131;SDS011;3097;42.692;23.278;2023-03-23T16:52:32;9.03;;;6.47;;
6131;SDS011;3097;42.692;23.278;2023-03-23T16:54:58;7.20;;;6.50;;
6131;SDS011;3097;42.692;23.278;2023-03-23T16:57:23;10.63;;;7.50;;
6131;SDS011;3097;42.692;23.278;2023-03-23T16:59:50;12.03;;;7.17;;
6131;SDS011;3097;42.692;23.278;2023-03-23T17:02:16;7.80;;;6.03;;
6131;SDS011;3097;42.692;23.278;2023-03-23T17:04:45;12.00;;;8.23;;
6131;SDS011;3097;42.692;23.278;2023-03-23T17:07:11;13.73;;;9.43;;
6131;SDS011;3097;42.692;23.278;2023-03-23T17:09:37;9.60;;;7.67;;
6131;SDS011;3097;42.692;23.278;2023-03-23T17:12:04;10.43;;;8.00;;
6131;SDS011;3097;42.692;23.278;2023-03-23T17:14:30;13.50;;;9.20;;
6131;SDS011;3097;42.692;23.278;2023-03-23T17:16:57;17.80;;;12.60;;
6131;SDS011;3097;42.692;23.278;2023-03-23T17:19:22;14.30;;;8.97;;
6131;SDS011;3097;42.692;23.278;2023-03-23T17:21:49;12.37;;;8.37;;
6131;SDS011;3097;42.692;23.278;2023-03-23T17:24:17;9.67;;;8.30;;
6131;SDS011;3097;42.692;23.278;2023-03-23T17:26:43;14.47;;;10.27;;
6131;SDS011;3097;42.692;23.278;2023-03-23T17:29:08;17.07;;;9.30;;
6131;SDS011;3097;42.692;23.278;2023-03-23T17:31:34;14.93;;;9.67;;
6131;SDS011;3097;42.692;23.278;2023-03-23T17:34:00;23.53;;;13.07;;
6131;SDS011;3097;42.692;23.278;2023-03-23T17:36:25;21.67;;;12.50;;
6131;SDS011;3097;42.692;23.278;2023-03-23T17:38:51;17.67;;;10.53;;
6131;SDS011;3097;42.692;23.278;2023-03-23T17:41:16;17.40;;;11.10;;
6131;SDS011;3097;42.692;23.278;2023-03-23T17:43:44;23.60;;;12.50;;
6131;SDS011;3097;42.692;23.278;2023-03-23T17:46:10;27.50;;;14.47;;
6131;SDS011;3097;42.692;23.278;2023-03-23T17:48:36;25.20;;;14.33;;
6131;SDS011;3097;42.692;23.278;2023-03-23T17:51:02;27.60;;;11.47;;
6131;SDS011;3097;42.692;23.278;2023-03-23T17:53:29;33.50;;;17.50;;
6131;SDS011;3097;42.692;23.278;2023-03-23T17:55:56;31.07;;;18.23;;
6131;SDS011;3097;42.692;23.278;2023-03-23T17:58:22;24.13;;;13.67;;
6131;SDS011;3097;42.692;23.278;2023-03-23T18:00:51;31.13;;;17.07;;
6131;SDS011;3097;42.692;23.278;2023-03-23T18:03:18;30.90;;;14.97;;
6131;SDS011;3097;42.692;23.278;2023-03-23T18:05:48;28.97;;;17.23;;
6131;SDS011;3097;42.692;23.278;2023-03-23T18:08:20;22.57;;;11.47;;
6131;SDS011;3097;42.692;23.278;2023-03-23T18:10:45;14.93;;;8.80;;
6131;SDS011;3097;42.692;23.278;2023-03-23T18:13:13;19.60;;;12.27;;
6131;SDS011;3097;42.692;23.278;2023-03-23T18:15:38;21.33;;;12.47;;
6131;SDS011;3097;42.692;23.278;2023-03-23T18:18:08;15.50;;;10.13;;
6131;SDS011;3097;42.692;23.278;2023-03-23T18:20:34;22.40;;;12.50;;
6131;SDS011;3097;42.692;23.278;2023-03-23T18:23:00;18.87;;;9.17;;
6131;SDS011;3097;42.692;23.278;2023-03-23T18:25:28;14.03;;;9.20;;
6131;SDS011;3097;42.692;23.278;2023-03-23T18:27:54;11.20;;;8.23;;
6131;SDS011;3097;42.692;23.278;2023-03-23T18:30:20;12.97;;;9.10;;
6131;SDS011;3097;42.692;23.278;2023-03-23T18:32:47;14.30;;;10.37;;
6131;SDS011;3097;42.692;23.278;2023-03-23T18:35:12;14.50;;;9.33;;
6131;SDS011;3097;42.692;23.278;2023-03-23T18:37:38;15.53;;;10.73;;
6131;SDS011;3097;42.692;23.278;2023-03-23T18:40:04;13.57;;;9.90;;
6131;SDS011;3097;42.692;23.278;2023-03-23T18:42:30;20.83;;;12.50;;
6131;SDS011;3097;42.692;23.278;2023-03-23T18:44:56;16.00;;;10.27;;
6131;SDS011;3097;42.692;23.278;2023-03-23T18:47:24;11.27;;;8.47;;
6131;SDS011;3097;42.692;23.278;2023-03-23T18:49:50;15.73;;;9.77;;
6131;SDS011;3097;42.692;23.278;2023-03-23T18:52:19;14.43;;;10.37;;
6131;SDS011;3097;42.692;23.278;2023-03-23T18:54:45;13.47;;;10.10;;
6131;SDS011;3097;42.692;23.278;2023-03-23T18:57:11;14.93;;;10.40;;
6131;SDS011;3097;42.692;23.278;2023-03-23T18:59:37;12.17;;;9.27;;
6131;SDS011;3097;42.692;23.278;2023-03-23T19:02:03;15.63;;;9.17;;
6131;SDS011;3097;42.692;23.278;2023-03-23T19:04:30;14.23;;;9.20;;
6131;SDS011;3097;42.692;23.278;2023-03-23T19:06:57;18.73;;;10.97;;
6131;SDS011;3097;42.692;23.278;2023-03-23T19:09:26;17.60;;;10.57;;
6131;SDS011;3097;42.692;23.278;2023-03-23T19:11:53;14.43;;;8.77;;
6131;SDS011;3097;42.692;23.278;2023-03-23T19:14:19;14.80;;;10.07;;
6131;SDS011;3097;42.692;23.278;2023-03-23T19:16:44;14.43;;;8.97;;
6131;SDS011;3097;42.692;23.278;2023-03-23T19:19:10;15.70;;;10.10;;
6131;SDS011;3097;42.692;23.278;2023-03-23T19:21:36;16.53;;;10.33;;
6131;SDS011;3097;42.692;23.278;2023-03-23T19:24:03;17.80;;;9.90;;